Time;durP1;ratioP1;P1;durP2;ratioP2;P2;SDS_P1;SDS_P2;PMS_P1;PMS_P2;Temp;Humidity;BMP_temperature;BMP_pressure;BME280_temperature;BME280_humidity;BME280_pressure;Samples;Min_cycle;Max_cycle;Signal;HPM_P1;HPM_P2
2022/03/03 17:30:55;;;;;;;4.20;2.80;;;10.10;72.50;;;;;;6194934;22;1309262;-72
2022/03/03 17:33:22;;;;;;;4.17;2.80;;;9.80;72.90;;;;;;6252184;23;20169;-72
2022/03/03 17:35:49;;;;;;;4.83;2.33;;;9.60;74.20;;;;;;6252122;23;20743;-72
2022/03/03 17:38:17;;;;;;;2.53;2.00;;;9.50;73.90;;;;;;6253140;23;20482;-71
2022/03/03 17:40:44;;;;;;;8.70;2.20;;;9.40;73.90;;;;;;6252959;23;20910;-71
2022/03/03 17:43:11;;;;;;;8.43;3.60;;;9.40;73.30;;;;;;6252490;23;20405;-70
2022/03/03 17:45:39;;;;;;;2.50;1.83;;;9.30;73.10;;;;;;6252923;23;20395;-70
2022/03/03 17:48:10;;;;;;;3.17;2.47;;;9.20;73.90;;;;;;6225903;23;20423;-73
2022/03/03 17:50:38;;;;;;;2.33;2.07;;;9.10;72.60;;;;;;6253285;23;20398;-72
2022/03/03 17:53:05;;;;;;;1.73;1.67;;;9.00;73.20;;;;;;6252770;23;20445;-71
2022/03/03 17:55:32;;;;;;;1.80;1.53;;;9.00;72.80;;;;;;6252898;23;20397;-70
2022/03/03 17:57:59;;;;;;;3.83;2.03;;;8.90;73.00;;;;;;6252871;23;20430;-70
2022/03/03 18:00:26;;;;;;;2.37;1.80;;;8.70;73.60;;;;;;6252940;23;20461;-72
2022/03/03 18:02:54;;;;;;;2.30;1.33;;;8.60;72.10;;;;;;6252850;23;20405;-72
2022/03/03 18:05:22;;;;;;;1.87;1.57;;;8.40;73.60;;;;;;6251817;23;20398;-72
2022/03/03 18:07:49;;;;;;;5.27;1.80;;;8.30;74.00;;;;;;6251721;23;20389;-71
2022/03/03 18:10:17;;;;;;;3.00;2.13;;;8.30;75.20;;;;;;6219938;23;20955;-70
2022/03/03 18:12:44;;;;;;;2.37;1.60;;;8.30;73.40;;;;;;6245909;23;20960;-70
2022/03/03 18:15:11;;;;;;;2.30;2.03;;;8.30;74.40;;;;;;6246114;23;20457;-72
2022/03/03 18:17:39;;;;;;;1.87;1.63;;;8.20;74.80;;;;;;6246454;23;20429;-71
2022/03/03 18:20:07;;;;;;;1.93;1.77;;;8.10;74.70;;;;;;6246507;23;20438;-70
2022/03/03 18:22:36;;;;;;;1.90;1.50;;;7.90;76.40;;;;;;6246051;23;20411;-71
2022/03/03 18:25:04;;;;;;;2.73;1.97;;;7.80;75.50;;;;;;6245773;23;20408;-70
2022/03/03 18:27:32;;;;;;;1.77;1.50;;;7.60;75.50;;;;;;6245846;23;20398;-71
2022/03/03 18:29:59;;;;;;;2.23;1.50;;;7.50;76.20;;;;;;6264378;22;20424;-71
2022/03/03 18:32:25;;;;;;;1.70;1.50;;;7.40;75.90;;;;;;6276478;22;20799;-70
2022/03/03 18:34:52;;;;;;;3.47;2.40;;;7.20;76.10;;;;;;6276651;22;20460;-71
2022/03/03 18:37:20;;;;;;;3.07;2.00;;;7.30;75.80;;;;;;6276214;22;20476;-71
2022/03/03 18:39:48;;;;;;;2.13;1.80;;;7.30;75.80;;;;;;6276513;22;20427;-71
2022/03/03 18:42:15;;;;;;;3.30;2.70;;;7.40;74.40;;;;;;6276715;22;20434;-69
2022/03/03 18:44:42;;;;;;;3.30;2.60;;;7.40;74.70;;;;;;6276577;22;20402;-71
2022/03/03 18:47:09;;;;;;;3.90;2.40;;;7.40;73.70;;;;;;6276597;22;20487;-70
2022/03/03 18:49:36;;;;;;;3.73;2.40;;;7.30;73.70;;;;;;6276573;22;20931;-71
2022/03/03 18:52:04;;;;;;;5.57;2.77;;;7.30;73.70;;;;;;6249704;22;20399;-70
2022/03/03 18:54:31;;;;;;;3.93;2.30;;;7.30;73.30;;;;;;6249121;22;20404;-70
2022/03/03 18:56:59;;;;;;;10.47;3.17;;;7.30;74.30;;;;;;6276510;22;20773;-70
2022/03/03 18:59:27;;;;;;;4.73;3.50;;;7.20;73.90;;;;;;6276017;22;20834;-70
2022/03/03 19:01:56;;;;;;;4.80;2.27;;;7.10;74.30;;;;;;6276313;22;20510;-71
2022/03/03 19:04:23;;;;;;;3.97;2.07;;;7.00;73.30;;;;;;6276302;22;20470;-70
2022/03/03 19:06:50;;;;;;;3.97;3.03;;;6.90;74.10;;;;;;6276577;22;20725;-70
2022/03/03 19:09:17;;;;;;;2.03;1.87;;;6.90;73.50;;;;;;6276662;22;20411;-70
2022/03/03 19:11:44;;;;;;;2.43;1.47;;;6.90;73.30;;;;;;6276095;22;21003;-71
2022/03/03 19:14:12;;;;;;;3.50;2.27;;;6.90;72.70;;;;;;6275848;22;20480;-71
2022/03/03 19:16:40;;;;;;;2.47;2.27;;;6.80;73.10;;;;;;6275865;22;20410;-71
2022/03/03 19:19:07;;;;;;;3.00;2.67;;;6.80;73.90;;;;;;6275862;22;20493;-71
2022/03/03 19:21:34;;;;;;;8.23;2.47;;;6.80;73.80;;;;;;6275290;22;20453;-70
2022/03/03 19:24:01;;;;;;;2.40;1.90;;;6.60;74.30;;;;;;6276128;22;20458;-70
2022/03/03 19:26:28;;;;;;;5.97;2.40;;;6.50;75.40;;;;;;6275487;22;20429;-70
2022/03/03 19:28:55;;;;;;;4.93;2.00;;;6.60;74.80;;;;;;6249383;22;20799;-70
2022/03/03 19:31:23;;;;;;;1.70;1.63;;;6.50;75.40;;;;;;6275505;22;20750;-70
2022/03/03 19:34:14;;;;;;;2.77;2.20;;;6.40;76.10;;;;;;6276017;22;20398;-70
2022/03/03 19:36:41;;;;;;;2.37;1.70;;;6.40;74.80;;;;;;6276090;22;20420;-72
2022/03/03 19:39:08;;;;;;;2.33;1.70;;;6.30;76.10;;;;;;6276009;22;20477;-71
2022/03/03 19:41:36;;;;;;;1.87;1.60;;;6.20;75.10;;;;;;6276144;22;20405;-71
2022/03/03 19:44:03;;;;;;;1.50;1.50;;;6.00;77.90;;;;;;6276109;22;20418;-71
2022/03/03 19:46:31;;;;;;;1.50;1.40;;;5.70;77.90;;;;;;6276092;22;20408;-70
2022/03/03 19:48:58;;;;;;;1.30;1.23;;;5.70;78.80;;;;;;6274204;22;20496;-70
2022/03/03 19:51:26;;;;;;;4.00;2.70;;;5.50;78.20;;;;;;6276103;22;20475;-71
2022/03/03 19:53:53;;;;;;;2.00;1.93;;;5.40;78.40;;;;;;6248230;22;20441;-70
2022/03/03 19:56:20;;;;;;;2.70;2.20;;;5.40;77.50;;;;;;6275992;22;20481;-70
2022/03/03 19:58:47;;;;;;;5.43;1.93;;;5.50;78.10;;;;;;6249265;22;20549;-69
2022/03/03 20:01:14;;;;;;;2.73;1.60;;;5.40;76.70;;;;;;6276038;22;20400;-70
2022/03/03 20:03:42;;;;;;;3.53;2.10;;;5.40;77.80;;;;;;6275852;22;20404;-70
2022/03/03 20:06:10;;;;;;;8.17;4.40;;;5.20;78.30;;;;;;6248746;22;20398;-70
2022/03/03 20:11:21;;;;;;;2.40;1.73;;;5.10;79.90;;;;;;6275269;22;20443;-72
2022/03/03 20:13:50;;;;;;;1.40;1.20;;;5.00;79.90;;;;;;6275363;22;20450;-70
2022/03/03 20:16:17;;;;;;;3.33;2.20;;;5.00;79.90;;;;;;6275438;22;20875;-71
2022/03/03 20:18:46;;;;;;;1.30;1.27;;;4.80;80.70;;;;;;6275414;22;20755;-71
2022/03/03 20:21:14;;;;;;;2.37;1.37;;;4.80;81.50;;;;;;6275581;22;20452;-71
2022/03/03 20:23:42;;;;;;;1.87;1.40;;;4.70;80.50;;;;;;6275611;22;20405;-71
2022/03/03 20:26:11;;;;;;;4.40;2.70;;;4.60;81.50;;;;;;6248817;22;20424;-71
2022/03/03 20:28:38;;;;;;;2.53;1.30;;;4.50;81.80;;;;;;6275157;22;20871;-71
2022/03/03 20:31:05;;;;;;;2.90;2.00;;;4.40;82.10;;;;;;6275319;22;20431;-70
2022/03/03 20:33:32;;;;;;;2.73;1.97;;;4.30;82.90;;;;;;6248707;22;20415;-69
2022/03/03 20:36:02;;;;;;;4.13;2.40;;;4.10;83.90;;;;;;6275514;22;20791;-70
2022/03/03 20:38:29;;;;;;;1.50;1.40;;;4.00;84.10;;;;;;6275305;22;20431;-71
2022/03/03 20:40:56;;;;;;;3.37;2.77;;;4.00;85.20;;;;;;6275431;22;20461;-71
2022/03/03 20:43:24;;;;;;;2.30;1.43;;;3.90;84.70;;;;;;6275300;22;20404;-69
2022/03/03 20:45:52;;;;;;;1.37;1.30;;;3.90;85.10;;;;;;6275238;22;20894;-71
2022/03/03 20:48:19;;;;;;;1.50;1.40;;;3.90;86.10;;;;;;6248992;22;20404;-70
2022/03/03 20:50:47;;;;;;;1.50;1.50;;;3.80;85.30;;;;;;6275114;22;20501;-70
2022/03/03 20:53:16;;;;;;;5.57;2.33;;;3.80;85.30;;;;;;6285053;22;20445;-70
2022/03/03 20:55:45;;;;;;;2.43;2.23;;;3.60;86.70;;;;;;6275466;22;20477;-71
2022/03/03 20:58:13;;;;;;;3.73;2.10;;;3.60;86.80;;;;;;6274727;22;20404;-70
2022/03/03 21:00:40;;;;;;;2.63;2.13;;;3.50;86.80;;;;;;6248163;22;20404;-70
2022/03/03 21:03:07;;;;;;;1.40;1.40;;;3.50;87.20;;;;;;6275155;22;20515;-71
2022/03/03 21:05:34;;;;;;;3.00;1.80;;;3.40;87.70;;;;;;6274974;22;20403;-70
2022/03/03 21:08:02;;;;;;;1.93;1.73;;;3.40;87.30;;;;;;6275033;22;20449;-70
2022/03/03 21:10:31;;;;;;;4.47;3.17;;;3.40;88.00;;;;;;6274931;22;20971;-71
2022/03/03 21:13:00;;;;;;;5.80;2.47;;;3.30;88.50;;;;;;6274830;22;20403;-70
2022/03/03 21:15:27;;;;;;;2.13;1.70;;;3.30;88.70;;;;;;6275342;22;20403;-70
2022/03/03 21:17:54;;;;;;;5.10;2.33;;;3.30;88.00;;;;;;6274883;22;20452;-69
2022/03/03 21:20:23;;;;;;;1.97;1.90;;;3.20;88.50;;;;;;6275266;22;20424;-71
2022/03/03 21:22:51;;;;;;;2.80;2.03;;;3.20;88.70;;;;;;6274722;22;20408;-70
2022/03/03 21:25:18;;;;;;;2.53;2.00;;;3.20;88.40;;;;;;6275071;22;20867;-69
2022/03/03 21:27:47;;;;;;;3.10;2.13;;;3.10;88.90;;;;;;6275186;22;20397;-70
2022/03/03 21:30:15;;;;;;;4.43;2.30;;;3.00;89.30;;;;;;6248047;22;20443;-69
2022/03/03 21:32:42;;;;;;;2.60;1.47;;;2.90;88.90;;;;;;6275222;22;20409;-69
2022/03/03 21:35:13;;;;;;;2.50;2.30;;;2.90;88.70;;;;;;6275142;22;20491;-70
2022/03/03 21:37:40;;;;;;;3.13;2.93;;;3.00;89.00;;;;;;6266636;22;20489;-70
2022/03/03 21:40:08;;;;;;;1.63;1.27;;;2.80;89.20;;;;;;6275109;22;20432;-70
2022/03/03 21:42:35;;;;;;;1.60;1.50;;;2.80;90.30;;;;;;6275179;22;20405;-69
2022/03/03 21:45:06;;;;;;;1.70;1.40;;;2.90;90.10;;;;;;6248876;22;20481;-70
2022/03/03 21:47:36;;;;;;;3.30;2.53;;;2.90;90.00;;;;;;6277102;22;20409;-69
2022/03/03 21:50:03;;;;;;;1.77;1.53;;;2.70;90.20;;;;;;6276815;22;21029;-70
2022/03/03 21:52:31;;;;;;;13.40;1.70;;;2.70;90.40;;;;;;6277068;22;20397;-70
2022/03/03 21:54:58;;;;;;;2.10;1.77;;;2.70;91.50;;;;;;6276383;22;20940;-69
2022/03/03 21:57:27;;;;;;;2.27;2.10;;;2.60;91.40;;;;;;6249858;22;20456;-69
2022/03/03 21:59:55;;;;;;;1.60;1.50;;;2.50;91.80;;;;;;6248931;22;20443;-70
2022/03/03 22:02:24;;;;;;;2.10;1.83;;;2.60;91.80;;;;;;6277216;22;20754;-70
2022/03/03 22:04:51;;;;;;;1.87;1.77;;;2.30;92.40;;;;;;6276574;22;20416;-69
2022/03/03 22:07:19;;;;;;;2.40;1.80;;;2.30;92.60;;;;;;6277048;22;20424;-70
2022/03/03 22:09:47;;;;;;;3.20;2.47;;;2.20;92.70;;;;;;6277005;22;20404;-71
2022/03/03 22:12:15;;;;;;;2.47;2.27;;;2.10;93.60;;;;;;6286443;22;20416;-70
2022/03/03 22:14:45;;;;;;;2.47;1.80;;;2.00;94.10;;;;;;6276581;22;20467;-70
2022/03/03 22:17:15;;;;;;;3.33;1.97;;;2.10;94.50;;;;;;6276510;22;20397;-70
2022/03/03 22:19:44;;;;;;;1.57;1.53;;;2.30;94.20;;;;;;6276558;22;20788;-70
2022/03/03 22:22:11;;;;;;;1.73;1.63;;;2.40;93.80;;;;;;6276376;22;20405;-70
2022/03/03 22:24:38;;;;;;;2.10;1.63;;;2.40;93.60;;;;;;6276454;22;21077;-69
2022/03/03 22:27:06;;;;;;;1.30;1.30;;;2.30;93.50;;;;;;6276780;22;20408;-69
2022/03/03 22:29:33;;;;;;;2.47;1.77;;;2.10;94.40;;;;;;6276541;22;20455;-70
2022/03/03 22:32:00;;;;;;;1.43;1.33;;;1.80;95.40;;;;;;6276550;22;20422;-70
2022/03/03 22:34:27;;;;;;;2.13;1.73;;;1.80;96.00;;;;;;6276666;22;20490;-71
2022/03/03 22:36:55;;;;;;;25.07;2.33;;;1.70;96.50;;;;;;6276829;22;20404;-71
2022/03/03 22:39:22;;;;;;;1.30;1.30;;;1.70;96.60;;;;;;6276216;22;20429;-70
2022/03/03 22:41:49;;;;;;;4.40;1.90;;;1.70;96.60;;;;;;6276060;22;20435;-71
2022/03/03 22:44:16;;;;;;;3.27;2.70;;;1.70;96.30;;;;;;6276163;22;20413;-70
2022/03/03 22:46:44;;;;;;;2.10;1.60;;;1.50;97.20;;;;;;6249566;22;20419;-70
2022/03/03 22:49:11;;;;;;;1.50;1.50;;;1.40;97.50;;;;;;6276405;22;20401;-70
2022/03/03 22:54:24;;;;;;;1.40;1.20;;;1.60;96.80;;;;;;6276056;22;20472;-69
2022/03/03 22:56:52;;;;;;;1.20;1.10;;;1.60;96.80;;;;;;6276221;22;20458;-70
2022/03/03 22:59:20;;;;;;;3.97;2.40;;;1.60;97.40;;;;;;6224185;22;20440;-69
2022/03/03 23:01:48;;;;;;;1.20;1.20;;;1.50;97.50;;;;;;6276329;22;20701;-70
2022/03/03 23:07:18;;;;;;;3.17;1.97;;;1.40;98.00;;;;;;6276141;22;20389;-70
2022/03/03 23:09:48;;;;;;;3.50;2.43;;;1.60;98.00;;;;;;6276213;22;20404;-71
2022/03/03 23:12:16;;;;;;;3.57;2.40;;;1.60;98.00;;;;;;6275992;22;20397;-70
2022/03/03 23:14:44;;;;;;;1.30;1.30;;;1.50;97.90;;;;;;6276302;22;20400;-70
2022/03/03 23:17:16;;;;;;;2.53;2.33;;;1.50;98.00;;;;;;6276314;22;20404;-70
2022/03/03 23:19:43;;;;;;;3.17;2.57;;;1.60;97.50;;;;;;6249732;22;20429;-69
2022/03/03 23:22:12;;;;;;;2.00;1.70;;;1.60;97.50;;;;;;6276011;22;20425;-69
2022/03/03 23:24:41;;;;;;;2.87;2.27;;;1.60;97.40;;;;;;6249945;22;20397;-69
2022/03/03 23:27:12;;;;;;;2.33;2.13;;;1.50;98.00;;;;;;6276460;22;20451;-69
2022/03/03 23:29:39;;;;;;;1.30;1.23;;;1.20;98.00;;;;;;6275781;22;20483;-69
2022/03/03 23:32:08;;;;;;;1.87;1.77;;;1.20;98.00;;;;;;6275988;22;20397;-69
2022/03/03 23:34:35;;;;;;;1.60;1.23;;;1.30;98.00;;;;;;6249320;22;21092;-70
2022/03/03 23:37:03;;;;;;;3.43;2.10;;;1.00;98.00;;;;;;6275859;22;20397;-69
2022/03/03 23:39:30;;;;;;;2.03;1.87;;;1.00;98.00;;;;;;6275831;22;20478;-69
2022/03/03 23:41:57;;;;;;;1.57;1.47;;;0.90;98.00;;;;;;6248574;22;20413;-69
2022/03/03 23:44:25;;;;;;;1.20;1.10;;;0.90;98.00;;;;;;6275880;22;20428;-70
2022/03/03 23:46:52;;;;;;;1.67;1.63;;;0.80;98.00;;;;;;6274762;22;20435;-69
2022/03/03 23:49:19;;;;;;;2.23;2.07;;;0.90;98.00;;;;;;6274946;22;20393;-69
2022/03/03 23:51:46;;;;;;;2.37;2.17;;;0.90;98.00;;;;;;6275035;22;20412;-69
2022/03/03 23:54:13;;;;;;;6.17;2.90;;;0.90;98.00;;;;;;6275370;22;20397;-68
2022/03/03 23:56:40;;;;;;;1.50;1.40;;;0.90;98.00;;;;;;6275925;22;20408;-68
2022/03/03 23:59:07;;;;;;;2.90;2.70;;;0.80;98.00;;;;;;6275221;22;20412;-68
